Flight Track Log - Related Links

Times and Time Zones

All times are in EDT time to prevent confusion due to time zone crossing. See the N411WC flight status page for this flight to view local times or setup timezone preferences in your user account.

Time Position Orientation Groundspeed Altitude Reporting Facility
EDT Latitude Longitude Course Direction KTS MPH feet Rate Location/Type
Fri 05:08:53 PM 43.6100 -116.3658 295° West 189 217 7,000  Level Salt Lake Center
Fri 05:09:54 PM 43.6350 -116.4397 295° West 202 232 8,900 1,756 Climbing Salt Lake Center
Fri 05:10:56 PM 43.6575 -116.5078 295° West 207 238 10,600 1,839 Climbing Salt Lake Center
Fri 05:11:58 PM 43.6847 -116.5906 294° West 211 243 12,700 1,839 Climbing Salt Lake Center
Fri 05:13:00 PM 43.7222 -116.7663 292° West  Level Estimated
Fri 05:13:00 PM 43.7089 -116.6617 295° West 211 243 14,400  Level Salt Lake Center
Fri 05:14:03 PM 43.7356 -116.7447 294° West 208 239 16,400 1,728 Climbing Salt Lake Center
Fri 05:15:05 PM 43.7578 -116.8156 293° West 207 238 18,000 1,645 Climbing Salt Lake Center
Fri 05:16:07 PM 43.7792 -116.8825 294° West 199 229 19,800 1,839 Climbing Salt Lake Center
Fri 05:17:09 PM 43.8047 -116.9592 295° West 196 226 21,800 1,790 Climbing Salt Lake Center
Fri 05:18:11 PM 43.8239 -117.0200 294° West 181 208 23,500 1,548 Climbing Salt Lake Center
Fri 05:19:13 PM 43.8456 -117.0892 293° West 178 205 25,000 1,210 Climbing Salt Lake Center
Fri 05:20:15 PM 43.8653 -117.1528 293° West 186 214 26,000 484 Climbing Salt Lake Center
Fri 05:21:17 PM 43.8944 -117.2406 295° West 229 264 26,000  Level Salt Lake Center
Fri 05:22:19 PM 43.9222 -117.3250 295° West 250 288 26,000  Level Salt Lake Center
Fri 05:23:21 PM 43.9542 -117.4297 293° West 264 304 26,000  Level Salt Lake Center
Fri 05:24:23 PM 43.9833 -117.5192 294° West 266 306 26,000  Level Salt Lake Center
Fri 05:25:25 PM 44.0175 -117.6239 294° West 267 307 26,000  Level Salt Lake Center
Fri 05:26:27 PM 44.0458 -117.7169 293° West 271 312 26,000  Level Salt Lake Center
Fri 05:27:29 PM 44.0739 -117.8083 293° West 268 308 26,000  Level Salt Lake Center
Fri 05:28:31 PM 44.1089 -117.9167 294° West 276 318 26,000  Level Salt Lake Center
Fri 05:29:33 PM 44.1361 -118.0072 293° West 268 308 26,000  Level Salt Lake Center
Fri 05:30:35 PM 44.1692 -118.1128 294° West 266 306 26,000  Level Salt Lake Center
Fri 05:31:37 PM 44.1969 -118.2036 293° West 265 305 26,000  Level Salt Lake Center
Fri 05:32:35 PM 44.2253 -118.2947 293° West 267 307 26,000  Level Seattle Center
Fri 05:33:37 PM 44.2561 -118.3931 294° West 272 313 26,000  Level Seattle Center
Fri 05:34:38 PM 44.2856 -118.4894 293° West 275 316 26,000  Level Seattle Center
Fri 05:35:39 PM 44.3167 -118.5892 294° West 280 322 26,000  Level Seattle Center
Fri 05:36:40 PM 44.3539 -118.7092 293° West 281 323 26,000  Level Seattle Center
Fri 05:37:42 PM 44.3819 -118.8097 291° West 279 321 26,000  Level Seattle Center
Fri 05:38:43 PM 44.4117 -118.9078 293° West 277 319 26,000  Level Seattle Center
Fri 05:39:44 PM 44.4356 -119.0078 289° West 274 315 26,000  Level Seattle Center
Fri 05:40:45 PM 44.4506 -119.1103 282° West 269 310 26,000  Level Seattle Center
Fri 05:41:46 PM 44.4669 -119.2128 283° West 271 312 26,000  Level Seattle Center
Fri 05:42:48 PM 44.4847 -119.3150 284° West 272 313 26,000  Level Seattle Center
Fri 05:43:49 PM 44.5000 -119.4181 282° West 270 311 26,000  Level Seattle Center
Fri 05:44:50 PM 44.5161 -119.5211 282° West 271 312 26,000  Level Seattle Center
Fri 05:45:51 PM 44.5325 -119.6247 283° West 272 313 26,000  Level Seattle Center
Fri 05:46:52 PM 44.5481 -119.7289 282° West 273 314 26,000  Level Seattle Center
Fri 05:47:54 PM 44.5653 -119.8328 283° West 273 314 26,000  Level Seattle Center
Fri 05:48:55 PM 44.5831 -119.9550 282° West 268 308 26,000  Level Seattle Center
Fri 05:49:56 PM 44.5983 -120.0592 282° West 270 311 26,000  Level Seattle Center
Fri 05:50:57 PM 44.6144 -120.1622 282° West 270 311 26,000  Level Seattle Center
Fri 05:51:59 PM 44.6300 -120.2636 282° West 266 306 26,000  Level Seattle Center
Fri 05:53:00 PM 44.6453 -120.3647 282° West 264 304 26,000  Level Seattle Center
Fri 05:54:01 PM 44.6606 -120.4700 282° West 271 312 26,000  Level Seattle Center
Fri 05:55:02 PM 44.6764 -120.5750 282° West 273 314 26,000  Level Seattle Center
Fri 05:56:03 PM 44.6922 -120.6783 282° West 272 313 26,000  Level Seattle Center
Fri 05:57:05 PM 44.7069 -120.7817 281° West 270 311 26,000  Level Seattle Center
Fri 05:58:06 PM 44.7217 -120.8850 281° West 270 311 26,000  Level Seattle Center
Fri 05:59:07 PM 44.7375 -120.9892 282° West 272 313 26,000  Level Seattle Center
Fri 06:00:08 PM 44.7517 -121.0922 281° West 269 310 26,000 -443 Level Seattle Center
Fri 06:01:09 PM 44.7706 -121.2211 282° West 281 323 25,100 -934 Descending Seattle Center
Fri 06:02:10 PM 44.7867 -121.3358 281° West 298 343 24,100 -1,279 Descending Seattle Center
Fri 06:03:11 PM 44.8025 -121.4542 281° West 308 354 22,500 -1,610 Descending Seattle Center
Fri 06:04:13 PM 44.8194 -121.5769 281° West 319 367 20,800 -1,659 Descending Seattle Center
Fri 06:05:14 PM 44.8361 -121.6981 281° West 317 365 19,100 -1,696 Descending Seattle Center
Fri 06:05:45 PM 44.8475 -121.7586 285° West 307 353 18,200 -1,377 Descending Seattle Center
Fri 06:06:15 PM 44.8514 -121.8181 275° West 312 359 17,700 -1,451 Descending Seattle Center
Fri 06:07:16 PM 44.8694 -121.9342 282° West 313 360 16,000 -1,745 Descending Seattle Center
Fri 06:08:05 PM 44.8836 -122.0428 280° West 306 352 14,500 -1,706 Descending Seattle Center
Fri 06:09:05 PM 44.8969 -122.1594 279° West 305 351 12,900 -1,970 Descending Seattle Center
Fri 06:10:19 PM 44.9511 -122.2836 302° West 300 345 10,100 -2,156 Descending Seattle Center
Fri 06:11:13 PM 44.9925 -122.3586 308° West 292 336 8,300 -2,092 Descending Seattle Center
Fri 06:12:08 PM 45.0350 -122.4392 307° West 279 321 6,300 -1,246 Descending Seattle Center
Fri 06:13:23 PM 45.0872 -122.5422 306° West 263 303 5,600 -1,103 Descending Seattle Center
Fri 06:14:24 PM 45.1253 -122.6167 306° West 244 281 3,800 -1,721 Descending Seattle Center
Fri 06:15:25 PM 45.1586 -122.6772 308° West 212 244 2,100 -1,180 Descending Seattle Center
Fri 06:16:26 PM 45.1839 -122.7294 304° West 174 200 1,400 -634 Descending Seattle Center
Fri 06:17:28 PM 45.2094 -122.7758 308° West 159 183 800 -585 Descending Seattle Center
Fri 06:18:29 PM 45.2397 -122.7719 North 123 142 200 -344 Descending Seattle Center
Fri 06:19:30 PM 45.2542 -122.7689 North 96 110 100 -98 Descending Seattle Center

Login

Don't have an account? Register now (free) for customized features, flight alerts, and more!